Washington Executive test (W32)
Clinton, MD
Field Elevation: 249
Lat: 38°44.89N  Long: 76°55.97W
CTAF/Unicom Freq: 122.8000
Weather Advisories
2015-10-10   08:55 Z
Altimeter 30.05" Hg
Wind 023° @ 5 KT
Gusts 10 KT
Temperature 15° C (59° F)
Dewpoint 8° C (46° F)
Relative Humidity 62%
Density Altitude 195 feet
Condensation Altitude 3,832 feet
Wind and Runways
Indicated Runway = 05
Headwind = 4 kt
Crosswind = 2 kt
More Info
All DigiWx sites map
Weather Radar
NOAA Forecast
Airport IQ 5010
(HMIEM) Shock Trauma Ctr
(26N) Ocean City
about DigiWx
FAA Disclaimer: The data displayed is for advisory purposes only and is not to be used for flight planning or operations. For official data, please call (not available) to hear the current automated AWOS voice message.
  METAR W32 100855Z AUTO 02005G10KT 15/08 A3005